createdAt,value
2022-10-23T00:03:12.202Z,514.37037
2022-10-23T00:08:14.132Z,525.13208
2022-10-23T00:13:15.895Z,514.37037
2022-10-23T00:18:17.666Z,519.70093
2022-10-23T00:23:19.728Z,498.95495
2022-10-23T00:28:21.187Z,498.95495
2022-10-23T00:33:23.001Z,494
2022-10-23T00:38:24.953Z,461.64706
2022-10-23T00:43:26.460Z,470.49573
2022-10-23T00:48:28.068Z,466.0339
2022-10-23T00:53:30.135Z,479.65217
2022-10-23T00:58:31.645Z,498.95495
2022-10-23T01:03:33.197Z,509.13761
2022-10-23T01:08:34.772Z,509.13761
2022-10-23T01:13:36.714Z,494
2022-10-23T01:18:38.153Z,498.95495
2022-10-23T01:23:39.867Z,494
2022-10-23T01:28:41.297Z,489.13274
2022-10-23T01:33:42.789Z,484.35088
2022-10-23T01:38:44.575Z,466.0339
2022-10-23T01:43:46.331Z,475.03448
2022-10-23T01:48:48.201Z,448.91803
2022-10-23T01:53:50.249Z,448.91803
2022-10-23T01:58:52.027Z,461.64706
2022-10-23T02:03:54.074Z,453.09091
2022-10-23T02:08:55.919Z,475.03448
2022-10-23T02:13:57.854Z,470.49573
2022-10-23T02:18:59.589Z,466.0339
2022-10-23T02:24:01.790Z,470.49573
2022-10-23T02:29:03.523Z,479.65217
2022-10-23T02:34:05.641Z,479.65217
2022-10-23T02:39:07.487Z,484.35088
2022-10-23T02:44:09.290Z,479.65217
2022-10-23T02:49:11.109Z,475.03448
2022-10-23T02:54:13.179Z,470.49573
2022-10-23T02:59:15.079Z,470.49573
2022-10-23T03:04:16.563Z,479.65217
2022-10-23T03:09:18.495Z,470.49573
2022-10-23T03:14:20.267Z,475.03448
2022-10-23T03:19:22.270Z,475.03448
2022-10-23T03:24:24.405Z,470.49573
2022-10-23T03:29:26.184Z,466.0339
2022-10-23T03:34:28.000Z,466.0339
2022-10-23T03:39:29.699Z,466.0339
2022-10-23T03:44:31.630Z,461.64706
2022-10-23T03:49:33.518Z,461.64706
2022-10-23T03:54:35.622Z,470.49573
2022-10-23T03:59:37.382Z,461.64706
2022-10-23T04:04:38.876Z,461.64706
2022-10-23T04:09:40.404Z,466.0339
2022-10-23T04:14:42.042Z,470.49573
2022-10-23T04:19:43.552Z,470.49573
2022-10-23T04:24:45.433Z,475.03448
2022-10-23T04:29:46.904Z,461.64706
2022-10-23T04:34:48.410Z,461.64706
2022-10-23T04:39:50.035Z,457.33333
2022-10-23T04:44:51.531Z,440.77419
2022-10-23T04:49:52.997Z,432.88889
2022-10-23T04:54:54.997Z,425.25
2022-10-23T04:59:56.733Z,417.84615
2022-10-23T05:04:58.572Z,432.88889
2022-10-23T05:10:00.361Z,429.03937
2022-10-23T05:15:02.071Z,448.91803
2022-10-23T05:20:03.862Z,448.91803
2022-10-23T05:25:05.886Z,489.13274
2022-10-23T05:30:07.590Z,504
2022-10-23T05:35:09.260Z,461.64706
2022-10-23T05:40:11.052Z,470.49573
2022-10-23T05:45:12.888Z,475.03448
2022-10-23T05:50:14.674Z,461.64706
2022-10-23T05:55:16.885Z,494
2022-10-23T06:00:18.858Z,479.65217
2022-10-23T06:05:20.741Z,457.33333
2022-10-23T06:10:22.707Z,475.03448
2022-10-23T06:15:24.578Z,484.35088
2022-10-23T06:20:28.014Z,519.70093
2022-10-23T06:25:31.098Z,489.13274
2022-10-23T06:30:33.294Z,514.37037
2022-10-23T06:35:35.217Z,525.13208
2022-10-23T06:40:37.070Z,514.37037
2022-10-23T06:45:38.885Z,484.35088
2022-10-23T06:50:40.404Z,536.30769
2022-10-23T06:55:42.141Z,566.22222
2022-10-23T07:00:43.686Z,542.05825
2022-10-23T07:05:45.274Z,560
2022-10-23T07:10:47.058Z,509.13761
2022-10-23T07:15:48.609Z,592.42105
2022-10-23T07:20:50.101Z,579.05155
2022-10-23T07:25:52.015Z,572.57143
2022-10-23T07:30:53.786Z,542.05825
2022-10-23T07:35:55.746Z,566.22222
2022-10-23T07:40:57.531Z,636.13483
2022-10-23T07:45:59.278Z,620.92308
2022-10-23T07:51:01.056Z,585.66667
2022-10-23T07:56:03.422Z,599.31915
2022-10-23T08:01:05.304Z,644
2022-10-23T08:06:07.215Z,652.04598
2022-10-23T08:11:08.894Z,644
2022-10-23T08:16:10.879Z,547.92157
2022-10-23T08:21:12.539Z,620.92308
2022-10-23T08:26:14.575Z,652.04598
2022-10-23T08:31:16.200Z,677.33333
2022-10-23T08:36:17.768Z,723.74684
2022-10-23T08:41:19.268Z,723.74684
2022-10-23T08:46:20.742Z,776.43243
2022-10-23T08:51:22.533Z,787.83562
2022-10-23T08:56:24.295Z,765.33333
2022-10-23T09:01:25.923Z,695.21951
2022-10-23T09:06:27.469Z,765.33333
2022-10-23T09:11:29.039Z,787.83562
2022-10-23T09:16:30.518Z,754.52632
2022-10-23T09:21:31.999Z,704.49383
2022-10-23T09:26:33.738Z,765.33333
2022-10-23T09:31:35.248Z,695.21951
2022-10-23T09:36:36.746Z,723.74684
2022-10-23T09:41:38.393Z,714
2022-10-23T09:46:39.981Z,695.21951
2022-10-23T09:51:41.595Z,765.33333
2022-10-23T09:56:43.305Z,776.43243
2022-10-23T10:01:44.853Z,733.74359
2022-10-23T10:06:46.472Z,714
2022-10-23T10:11:48.016Z,733.74359
2022-10-23T10:16:49.586Z,776.43243
2022-10-23T10:21:51.364Z,776.43243
2022-10-23T10:26:53.212Z,799.55556
2022-10-23T10:31:54.719Z,754.52632
2022-10-23T10:36:56.262Z,787.83562
2022-10-23T10:41:57.762Z,787.83562
2022-10-23T10:46:59.309Z,733.74359
2022-10-23T10:52:00.800Z,704.49383
2022-10-23T10:57:02.560Z,714
2022-10-23T11:02:04.237Z,723.74684
2022-10-23T11:07:05.940Z,686.16867
2022-10-23T11:12:07.410Z,704.49383
2022-10-23T11:17:09.006Z,744
2022-10-23T11:22:10.507Z,704.49383
2022-10-23T11:27:12.323Z,733.74359
2022-10-23T11:32:13.807Z,704.49383
2022-10-23T11:37:15.336Z,744
2022-10-23T11:42:16.832Z,723.74684
2022-10-23T11:47:18.296Z,686.16867
2022-10-23T11:52:19.782Z,714
2022-10-23T11:57:21.732Z,765.33333
2022-10-23T12:02:23.341Z,733.74359
2022-10-23T12:07:25.261Z,686.16867
2022-10-23T12:12:27.183Z,714
2022-10-23T12:17:28.607Z,723.74684
2022-10-23T12:22:30.507Z,704.49383
2022-10-23T12:27:32.464Z,723.74684
2022-10-23T12:32:34.269Z,744
2022-10-23T12:37:35.930Z,723.74684
2022-10-23T12:42:37.546Z,652.04598
2022-10-23T12:52:41.111Z,652.04598
2022-10-23T12:57:43.372Z,686.16867
2022-10-23T13:02:45.129Z,628.44444
2022-10-23T13:07:47.208Z,628.44444
2022-10-23T13:12:48.944Z,585.66667
2022-10-23T13:17:50.809Z,504
2022-10-23T13:22:55.263Z,461.64706
2022-10-23T13:27:59.954Z,436.8
2022-10-23T13:33:01.811Z,457.33333
2022-10-23T13:38:03.664Z,444.81301
2022-10-23T13:43:05.468Z,457.33333
2022-10-23T13:48:07.336Z,440.77419
2022-10-23T13:53:09.147Z,489.13274
2022-10-23T13:58:11.208Z,509.13761
2022-10-23T14:03:12.979Z,519.70093
2022-10-23T14:08:14.801Z,514.37037
2022-10-23T14:13:17.022Z,440.77419
2022-10-23T14:18:18.859Z,553.90099
2022-10-23T14:23:20.725Z,530.66667
2022-10-23T14:28:23.023Z,542.05825
2022-10-23T14:33:25.074Z,585.66667
2022-10-23T14:38:26.969Z,585.66667
2022-10-23T14:43:28.887Z,644
2022-10-23T14:48:30.788Z,695.21951
2022-10-23T14:53:32.623Z,668.70588
2022-10-23T14:58:34.763Z,744
2022-10-23T15:03:36.599Z,765.33333
2022-10-23T15:08:38.424Z,849.88235
2022-10-23T15:13:40.156Z,877.33333
2022-10-23T15:18:41.977Z,891.69231
2022-10-23T15:23:43.518Z,863.40299
2022-10-23T15:28:45.335Z,891.69231
2022-10-23T15:33:47.098Z,953.83607
2022-10-23T15:38:48.815Z,970.66667
2022-10-23T15:48:51.986Z,1006.06897
2022-10-23T15:53:53.445Z,953.83607
2022-10-23T15:58:55.404Z,1024.70175
2022-10-23T16:03:56.890Z,937.54839
2022-10-23T16:08:58.399Z,1006.06897
2022-10-23T16:14:00.100Z,988.0678
2022-10-23T16:19:01.578Z,953.83607
2022-10-23T16:24:03.381Z,1006.06897
2022-10-23T16:29:05.609Z,1024.70175
2022-10-23T16:34:11.663Z,1024.70175
2022-10-23T16:39:13.589Z,1024.70175
2022-10-23T16:44:15.365Z,988.0678
2022-10-23T16:49:17.317Z,988.0678
2022-10-23T16:54:19.076Z,953.83607
2022-10-23T16:59:21.164Z,970.66667
2022-10-23T17:04:23.087Z,988.0678
2022-10-23T17:09:24.908Z,970.66667
2022-10-23T17:14:26.755Z,988.0678
2022-10-23T17:19:44.990Z,988.0678
2022-10-23T17:24:50.167Z,988.0678
2022-10-23T17:29:55.668Z,953.83607
2022-10-23T17:34:57.386Z,937.54839
2022-10-23T17:40:01.169Z,921.77778
2022-10-23T17:45:03.736Z,906.5
2022-10-23T17:50:06.084Z,891.69231
2022-10-23T17:55:07.906Z,877.33333
2022-10-23T18:00:10.174Z,836.75362
2022-10-23T18:05:12.056Z,695.21951
2022-10-23T18:10:14.008Z,714
2022-10-23T18:15:16.048Z,733.74359
2022-10-23T18:20:17.845Z,754.52632
2022-10-23T18:25:19.636Z,765.33333
2022-10-23T18:30:22.152Z,836.75362
2022-10-23T18:35:24.127Z,799.55556
2022-10-23T18:40:27.927Z,836.75362
2022-10-23T18:45:30.414Z,787.83562
2022-10-23T18:50:32.199Z,811.60563
2022-10-23T19:00:36.251Z,811.60563
2022-10-23T19:05:38.084Z,891.69231
2022-10-23T19:10:40.068Z,849.88235
2022-10-23T19:15:41.945Z,877.33333
2022-10-23T19:20:43.652Z,799.55556
2022-10-23T19:25:45.234Z,765.33333
2022-10-23T19:30:47.001Z,776.43243
2022-10-23T19:35:48.544Z,733.74359
2022-10-23T19:40:50.343Z,744
2022-10-23T19:45:52.255Z,776.43243
2022-10-23T19:50:53.816Z,733.74359
2022-10-23T19:55:55.460Z,744
2022-10-23T20:00:57.869Z,744
2022-10-23T20:05:59.967Z,704.49383
2022-10-23T20:11:02.030Z,723.74684
2022-10-23T20:16:03.957Z,733.74359
2022-10-23T20:21:05.751Z,765.33333
2022-10-23T20:26:07.793Z,733.74359
2022-10-23T20:31:09.823Z,723.74684
2022-10-23T20:36:11.559Z,714
2022-10-23T20:41:13.215Z,695.21951
2022-10-23T20:46:15.103Z,695.21951
2022-10-23T20:51:16.979Z,695.21951
2022-10-23T20:56:18.851Z,677.33333
2022-10-23T21:01:21.274Z,668.70588
2022-10-23T21:06:23.196Z,677.33333
2022-10-23T21:11:24.942Z,677.33333
2022-10-23T21:16:28.630Z,668.70588
2022-10-23T21:21:30.533Z,606.36559
2022-10-23T21:26:32.421Z,599.31915
2022-10-23T21:31:34.524Z,636.13483
2022-10-23T21:36:48.277Z,636.13483
2022-10-23T21:41:56.076Z,636.13483
2022-10-23T21:46:58.017Z,644
2022-10-23T21:51:59.813Z,644
2022-10-23T21:57:01.343Z,613.56522
2022-10-23T22:02:03.481Z,613.56522
2022-10-23T22:07:05.439Z,636.13483
2022-10-23T22:12:07.514Z,620.92308
2022-10-23T22:17:09.515Z,644
2022-10-23T22:22:10.991Z,668.70588
2022-10-23T22:27:12.747Z,686.16867
2022-10-23T22:32:14.729Z,686.16867
2022-10-23T22:37:18.964Z,695.21951
2022-10-23T22:42:21.457Z,677.33333
2022-10-23T22:52:33.950Z,668.70588
2022-10-23T22:57:35.789Z,652.04598
2022-10-23T23:02:37.944Z,628.44444
2022-10-23T23:07:40.124Z,677.33333
2022-10-23T23:12:42.395Z,668.70588
2022-10-23T23:17:44.855Z,644
2022-10-23T23:22:47.472Z,606.36559
2022-10-23T23:27:49.306Z,599.31915
2022-10-23T23:32:50.829Z,592.42105
2022-10-23T23:40:57.846Z,599.31915
2022-10-23T23:45:59.781Z,572.57143
2022-10-23T23:51:01.931Z,572.57143
2022-10-23T23:56:03.957Z,560
